Time;durP1;ratioP1;P1;durP2;ratioP2;P2;SDS_P1;SDS_P2;PMS_P1;PMS_P2;Temp;Humidity;BMP_temperature;BMP_pressure;BME280_temperature;BME280_humidity;BME280_pressure;Samples;Min_cycle;Max_cycle;Signal;HPM_P1;HPM_P2
2021/10/07 00:00:45;;;;;;;0.40;0.20;;;10.30;99.90;;;;;;4991767;28;20468;-73
2021/10/07 00:03:10;;;;;;;0.40;0.20;;;10.30;99.90;;;;;;4974953;28;20435;-74
2021/10/07 00:05:36;;;;;;;0.40;0.20;;;10.10;99.90;;;;;;4991015;28;20473;-74
2021/10/07 00:08:03;;;;;;;0.40;0.20;;;10.00;99.90;;;;;;4974791;28;20390;-74
2021/10/07 00:10:29;;;;;;;0.40;0.20;;;10.10;99.90;;;;;;4974679;28;20410;-73
2021/10/07 00:12:54;;;;;;;0.40;0.20;;;10.20;99.90;;;;;;4992072;28;20402;-74
2021/10/07 00:15:20;;;;;;;0.40;0.30;;;10.30;99.90;;;;;;4991798;28;20894;-74
2021/10/07 00:17:46;;;;;;;0.40;0.20;;;10.40;99.90;;;;;;4991152;28;20721;-73
2021/10/07 00:20:14;;;;;;;0.40;0.30;;;10.20;99.90;;;;;;4992072;28;20386;-74
2021/10/07 00:22:41;;;;;;;0.40;0.30;;;10.10;99.90;;;;;;4991338;28;20405;-74
2021/10/07 00:25:08;;;;;;;0.40;0.20;;;10.30;99.90;;;;;;4991634;28;20597;-74
2021/10/07 00:27:35;;;;;;;0.40;0.20;;;10.30;99.90;;;;;;4991205;28;20481;-73
2021/10/07 00:30:06;;;;;;;0.40;0.20;;;10.60;99.90;;;;;;4991844;28;20526;-74
2021/10/07 00:32:35;;;;;;;0.40;0.20;;;10.40;99.90;;;;;;4991590;28;20470;-73
2021/10/07 00:40:29;;;;;;;0.40;0.20;;;10.40;99.90;;;;;;4991628;28;20459;-74
2021/10/07 00:42:54;;;;;;;0.40;0.20;;;10.30;99.90;;;;;;4991046;28;20774;-74
2021/10/07 00:45:20;;;;;;;0.40;0.30;;;10.30;99.90;;;;;;4983287;28;20423;-74
2021/10/07 00:47:46;;;;;;;0.40;0.20;;;10.30;99.90;;;;;;4971513;28;20393;-73
2021/10/07 00:50:11;;;;;;;0.40;0.20;;;10.40;99.90;;;;;;4972164;28;20729;-74
2021/10/07 00:52:37;;;;;;;0.40;0.20;;;10.30;99.90;;;;;;4971389;28;20396;-73
2021/10/07 00:55:03;;;;;;;0.40;0.20;;;10.30;99.90;;;;;;4971804;28;20861;-74
2021/10/07 00:57:28;;;;;;;0.40;0.20;;;10.20;99.90;;;;;;4972173;28;20400;-74
2021/10/07 00:59:54;;;;;;;0.40;0.20;;;10.30;99.90;;;;;;4953774;28;20483;-74
2021/10/07 01:02:20;;;;;;;0.40;0.30;;;10.30;99.90;;;;;;4971937;28;20822;-74
2021/10/07 01:04:46;;;;;;;0.40;0.20;;;10.50;99.90;;;;;;4971170;28;20805;-73
2021/10/07 01:07:12;;;;;;;0.40;0.20;;;10.20;99.90;;;;;;4971600;28;20406;-74
2021/10/07 01:09:39;;;;;;;0.40;0.28;;;10.20;99.90;;;;;;4970992;28;20388;-74
2021/10/07 01:12:05;;;;;;;0.40;0.20;;;10.30;99.90;;;;;;4971887;28;20479;-74
2021/10/07 01:14:36;;;;;;;0.40;0.20;;;10.40;99.90;;;;;;4972236;28;20487;-74
2021/10/07 01:17:01;;;;;;;0.40;0.20;;;10.30;99.90;;;;;;4954464;28;20830;-74
2021/10/07 01:19:27;;;;;;;0.40;0.20;;;10.30;99.90;;;;;;4971875;28;20479;-74
2021/10/07 01:21:54;;;;;;;0.40;0.20;;;10.20;99.90;;;;;;4970760;28;20489;-74
2021/10/07 01:24:19;;;;;;;0.40;0.20;;;10.30;99.90;;;;;;4971728;28;20418;-74
2021/10/07 01:26:45;;;;;;;0.40;0.20;;;10.30;99.90;;;;;;4971557;28;20392;-74
2021/10/07 01:29:11;;;;;;;0.40;0.20;;;10.30;99.90;;;;;;4975954;28;20450;-74
2021/10/07 01:31:36;;;;;;;0.40;0.20;;;10.20;99.90;;;;;;4975277;28;20427;-73
2021/10/07 01:34:02;;;;;;;0.40;0.20;;;10.20;99.90;;;;;;4975018;28;20952;-75
2021/10/07 01:36:28;;;;;;;0.40;0.20;;;10.30;99.90;;;;;;4975234;28;20467;-74
2021/10/07 01:38:53;;;;;;;0.40;0.30;;;10.30;99.90;;;;;;4974877;28;20399;-73
2021/10/07 01:41:19;;;;;;;0.40;0.30;;;10.20;99.90;;;;;;4975167;28;20424;-74
2021/10/07 01:43:44;;;;;;;0.40;0.40;;;10.20;99.90;;;;;;4974756;28;20392;-73
2021/10/07 01:46:10;;;;;;;0.40;0.20;;;10.30;99.90;;;;;;4990290;28;20403;-74
2021/10/07 01:48:36;;;;;;;0.40;0.20;;;10.20;99.90;;;;;;4994545;28;20395;-73
2021/10/07 01:51:01;;;;;;;0.40;0.20;;;10.30;99.90;;;;;;4994460;28;20852;-74
2021/10/07 01:53:27;;;;;;;0.40;0.30;;;10.40;99.90;;;;;;4994428;28;20429;-74
2021/10/07 01:55:53;;;;;;;0.40;0.20;;;10.30;99.90;;;;;;4993952;28;20402;-74
2021/10/07 01:58:19;;;;;;;1.00;0.70;;;10.40;99.90;;;;;;4994913;28;20764;-74
2021/10/07 02:00:45;;;;;;;0.40;0.20;;;10.30;99.90;;;;;;4993639;28;20751;-74
2021/10/07 02:03:10;;;;;;;0.75;0.52;;;10.30;99.90;;;;;;4994657;28;20945;-73
2021/10/07 02:05:36;;;;;;;0.40;0.20;;;10.30;99.90;;;;;;4994177;28;20414;-73
2021/10/07 02:08:01;;;;;;;0.40;0.20;;;10.10;99.90;;;;;;4993682;28;20390;-74
2021/10/07 02:10:27;;;;;;;0.40;0.20;;;10.20;99.90;;;;;;4994060;28;20750;-74
2021/10/07 02:12:53;;;;;;;0.40;0.20;;;10.20;99.90;;;;;;4975863;28;20383;-74
2021/10/07 02:15:19;;;;;;;0.40;0.20;;;10.10;99.90;;;;;;4994456;28;20862;-74
2021/10/07 02:17:44;;;;;;;0.40;0.20;;;10.20;99.90;;;;;;4993547;28;20437;-74
2021/10/07 02:20:11;;;;;;;0.40;0.20;;;10.10;99.90;;;;;;4994332;28;20433;-74
2021/10/07 02:22:38;;;;;;;0.40;0.20;;;10.00;99.90;;;;;;4993835;28;20387;-73
2021/10/07 02:25:05;;;;;;;0.40;0.40;;;10.20;99.90;;;;;;4993299;28;20458;-74
2021/10/07 02:27:30;;;;;;;0.40;0.20;;;10.30;99.90;;;;;;4993694;28;20469;-74
2021/10/07 02:29:56;;;;;;;0.40;0.20;;;10.50;99.90;;;;;;4992955;28;21038;-74
2021/10/07 02:32:21;;;;;;;0.40;0.20;;;10.10;99.90;;;;;;4994135;28;20397;-74
2021/10/07 02:34:48;;;;;;;0.40;0.20;;;10.30;99.90;;;;;;4993128;28;20387;-74
2021/10/07 02:37:13;;;;;;;0.40;0.20;;;10.10;99.90;;;;;;4993578;28;20409;-74
2021/10/07 02:39:40;;;;;;;0.40;0.30;;;10.20;99.90;;;;;;4992238;28;20386;-73
2021/10/07 02:42:06;;;;;;;0.40;0.20;;;10.10;99.90;;;;;;4993511;28;20378;-74
2021/10/07 02:44:32;;;;;;;0.40;0.30;;;10.20;99.90;;;;;;4991467;28;20899;-74
2021/10/07 02:46:58;;;;;;;0.40;0.22;;;10.10;99.90;;;;;;4973319;28;20392;-74
2021/10/07 02:49:23;;;;;;;0.40;0.20;;;10.00;99.90;;;;;;4974092;28;20404;-74
2021/10/07 02:51:49;;;;;;;0.40;0.20;;;10.00;99.90;;;;;;4972823;28;20495;-74
2021/10/07 02:54:15;;;;;;;0.40;0.20;;;10.10;99.90;;;;;;4974236;28;20483;-74
2021/10/07 02:56:40;;;;;;;0.40;0.20;;;10.10;99.90;;;;;;4956103;28;20416;-73
2021/10/07 02:59:06;;;;;;;0.40;0.20;;;10.30;99.90;;;;;;4973798;28;20397;-74
2021/10/07 03:01:32;;;;;;;0.40;0.28;;;10.10;99.90;;;;;;4973822;28;20801;-74
2021/10/07 03:03:57;;;;;;;0.40;0.20;;;9.80;99.90;;;;;;4973003;28;20390;-74
2021/10/07 03:06:23;;;;;;;0.40;0.20;;;10.10;99.90;;;;;;4973689;28;20902;-74
2021/10/07 03:08:48;;;;;;;0.40;0.20;;;10.00;99.90;;;;;;4972489;28;20487;-74
2021/10/07 03:11:15;;;;;;;0.40;0.20;;;10.00;99.90;;;;;;4973873;28;20392;-74
2021/10/07 03:13:41;;;;;;;0.40;0.30;;;9.90;99.90;;;;;;4973553;28;20428;-74
2021/10/07 03:16:06;;;;;;;0.40;0.20;;;9.50;99.90;;;;;;4973370;28;20789;-74
2021/10/07 03:18:32;;;;;;;0.40;0.20;;;10.20;99.90;;;;;;4973402;28;20869;-74
2021/10/07 03:20:58;;;;;;;0.60;0.50;;;9.80;99.90;;;;;;4973156;28;20416;-73
2021/10/07 03:23:23;;;;;;;0.40;0.40;;;9.60;99.90;;;;;;4973315;28;20548;-74
2021/10/07 03:25:49;;;;;;;0.40;0.30;;;9.60;99.90;;;;;;4972903;28;20435;-74
2021/10/07 03:28:15;;;;;;;0.40;0.30;;;9.70;99.90;;;;;;4973404;28;20412;-74
2021/10/07 03:30:40;;;;;;;0.80;0.80;;;9.80;99.90;;;;;;4973292;28;20741;-73
2021/10/07 03:33:08;;;;;;;0.52;0.52;;;9.70;99.90;;;;;;4972868;28;20389;-74
2021/10/07 03:35:34;;;;;;;0.40;0.30;;;9.80;99.90;;;;;;4973595;28;20400;-75
2021/10/07 03:38:00;;;;;;;0.40;0.20;;;9.70;99.90;;;;;;4972240;28;20397;-74
2021/10/07 03:40:26;;;;;;;0.40;0.30;;;9.70;99.90;;;;;;4955950;28;20443;-75
2021/10/07 03:42:52;;;;;;;0.40;0.30;;;9.60;99.90;;;;;;4972479;28;20483;-74
2021/10/07 03:45:17;;;;;;;0.40;0.20;;;9.60;99.90;;;;;;4981010;28;20409;-75
2021/10/07 03:47:43;;;;;;;0.40;0.20;;;9.70;99.90;;;;;;4992342;28;20939;-73
2021/10/07 03:50:09;;;;;;;0.40;0.30;;;9.80;99.90;;;;;;4991845;28;20418;-73
2021/10/07 03:52:35;;;;;;;0.40;0.20;;;9.70;99.90;;;;;;4992514;28;20386;-73
2021/10/07 03:55:00;;;;;;;0.40;0.20;;;9.60;99.90;;;;;;4991172;28;20410;-74
2021/10/07 03:57:26;;;;;;;0.40;0.30;;;9.70;99.90;;;;;;4992564;28;20390;-73
2021/10/07 03:59:53;;;;;;;0.40;0.30;;;9.70;99.90;;;;;;4991269;28;20466;-73
2021/10/07 04:02:19;;;;;;;0.40;0.20;;;9.80;99.90;;;;;;4992463;28;20386;-74
2021/10/07 04:04:45;;;;;;;0.40;0.30;;;9.80;99.90;;;;;;4992060;28;20465;-73
2021/10/07 04:07:11;;;;;;;0.40;0.20;;;9.90;99.90;;;;;;4991975;28;20397;-74
2021/10/07 04:09:36;;;;;;;0.40;0.30;;;9.80;99.90;;;;;;4991834;28;20394;-74
2021/10/07 04:12:02;;;;;;;0.40;0.20;;;9.70;99.90;;;;;;4991578;28;20386;-73
2021/10/07 04:14:28;;;;;;;0.40;0.30;;;9.70;99.90;;;;;;4975108;28;20395;-75
2021/10/07 04:16:54;;;;;;;0.40;0.20;;;9.80;99.90;;;;;;4991653;28;20387;-74
2021/10/07 04:19:19;;;;;;;0.40;0.30;;;9.80;99.90;;;;;;4991711;28;20401;-74
2021/10/07 04:21:46;;;;;;;0.40;0.30;;;9.90;99.90;;;;;;4991896;28;20894;-73
2021/10/07 04:24:12;;;;;;;0.40;0.30;;;9.80;99.90;;;;;;4992069;28;20421;-74
2021/10/07 04:26:38;;;;;;;0.40;0.20;;;9.70;99.90;;;;;;4991909;28;20394;-74
2021/10/07 04:29:04;;;;;;;0.40;0.20;;;9.80;99.90;;;;;;4991329;28;20687;-74
2021/10/07 04:31:29;;;;;;;0.40;0.20;;;9.60;99.90;;;;;;4992079;28;20477;-73
2021/10/07 04:33:55;;;;;;;0.40;0.30;;;9.80;99.90;;;;;;4990766;28;20386;-73
2021/10/07 04:36:21;;;;;;;0.40;0.23;;;9.70;99.90;;;;;;4992198;28;20445;-73
2021/10/07 04:38:47;;;;;;;0.40;0.30;;;9.80;99.90;;;;;;4991345;28;20444;-73
2021/10/07 04:41:12;;;;;;;0.40;0.20;;;10.30;99.90;;;;;;4974428;28;20457;-73
2021/10/07 04:43:38;;;;;;;0.40;0.20;;;9.60;99.90;;;;;;4990089;28;20402;-73
2021/10/07 04:46:04;;;;;;;0.40;0.30;;;10.30;99.90;;;;;;4990308;28;20429;-73
2021/10/07 04:48:30;;;;;;;0.40;0.20;;;9.80;99.90;;;;;;4991272;28;20386;-74
2021/10/07 04:50:56;;;;;;;0.40;0.20;;;10.50;99.90;;;;;;4989239;28;20493;-73
2021/10/07 04:53:22;;;;;;;0.50;0.40;;;9.90;99.90;;;;;;4986204;28;20792;-74
2021/10/07 04:55:54;;;;;;;0.40;0.20;;;10.00;99.90;;;;;;4991581;28;20413;-73
2021/10/07 04:58:20;;;;;;;0.40;0.40;;;10.30;99.90;;;;;;4991553;28;20399;-73
2021/10/07 05:00:46;;;;;;;0.50;0.50;;;10.00;99.90;;;;;;4987217;28;20389;-73
2021/10/07 05:03:11;;;;;;;0.40;0.20;;;10.20;99.90;;;;;;4990910;28;20386;-74
2021/10/07 05:05:37;;;;;;;0.40;0.20;;;9.90;99.90;;;;;;4991227;28;20848;-73
2021/10/07 05:08:03;;;;;;;0.40;0.20;;;10.00;99.90;;;;;;4990606;28;20429;-73
2021/10/07 05:10:28;;;;;;;0.40;0.20;;;9.90;99.90;;;;;;4991090;28;20391;-73
2021/10/07 05:12:54;;;;;;;0.40;0.20;;;9.90;99.90;;;;;;4990173;28;20449;-73
2021/10/07 05:15:21;;;;;;;0.40;0.30;;;10.10;99.90;;;;;;4991086;28;20382;-73
2021/10/07 05:17:48;;;;;;;0.40;0.30;;;9.90;99.90;;;;;;4991009;28;20398;-73
2021/10/07 05:20:14;;;;;;;0.40;0.30;;;10.00;99.90;;;;;;4991082;28;20445;-73
2021/10/07 05:22:40;;;;;;;0.40;0.30;;;10.00;99.90;;;;;;4973783;28;20391;-74
2021/10/07 05:25:05;;;;;;;0.40;0.30;;;9.90;99.90;;;;;;4990225;28;20422;-73
2021/10/07 05:27:31;;;;;;;0.40;0.30;;;9.90;99.90;;;;;;4990916;28;20399;-73
2021/10/07 05:29:57;;;;;;;0.40;0.20;;;9.90;99.90;;;;;;4990375;28;20378;-73
2021/10/07 05:32:23;;;;;;;0.40;0.30;;;10.10;99.90;;;;;;4990467;28;20756;-74
2021/10/07 05:34:48;;;;;;;0.40;0.30;;;10.00;99.90;;;;;;4990867;28;20394;-73
2021/10/07 05:37:14;;;;;;;0.40;0.30;;;10.60;99.90;;;;;;4990843;28;20394;-73
2021/10/07 05:39:40;;;;;;;0.40;0.30;;;10.10;99.90;;;;;;4990799;28;20382;-73
2021/10/07 05:42:06;;;;;;;0.40;0.20;;;10.10;99.90;;;;;;4990233;28;20747;-72
2021/10/07 05:44:32;;;;;;;0.40;0.30;;;10.00;99.90;;;;;;4989338;28;20469;-72
2021/10/07 05:46:58;;;;;;;0.40;0.20;;;9.90;99.90;;;;;;4971230;28;20800;-72
2021/10/07 05:49:26;;;;;;;0.40;0.20;;;10.10;99.90;;;;;;4971900;28;20391;-73
2021/10/07 05:51:52;;;;;;;0.40;0.30;;;10.10;99.90;;;;;;4970964;28;20773;-73
2021/10/07 05:54:19;;;;;;;0.40;0.30;;;10.20;99.90;;;;;;4971705;28;20447;-73
2021/10/07 05:56:45;;;;;;;0.40;0.20;;;10.10;99.90;;;;;;4971882;28;20741;-73
2021/10/07 05:59:11;;;;;;;0.40;0.20;;;10.20;99.90;;;;;;4971282;28;20403;-73
2021/10/07 06:01:36;;;;;;;0.40;0.20;;;10.30;99.90;;;;;;4972097;28;20392;-73
2021/10/07 06:04:02;;;;;;;0.40;0.20;;;10.20;99.90;;;;;;4971015;28;20384;-73
2021/10/07 06:06:28;;;;;;;0.40;0.20;;;10.10;99.90;;;;;;4971808;28;20388;-73
2021/10/07 06:08:53;;;;;;;0.40;0.20;;;10.10;99.90;;;;;;4971136;28;20392;-73
2021/10/07 06:11:19;;;;;;;0.40;0.20;;;10.30;99.90;;;;;;4971901;28;20462;-73
2021/10/07 06:13:45;;;;;;;0.40;0.20;;;10.30;99.90;;;;;;4974206;28;20730;-73
2021/10/07 06:16:11;;;;;;;0.40;0.20;;;10.30;99.90;;;;;;4974909;28;20396;-73
2021/10/07 06:18:36;;;;;;;0.40;0.20;;;10.40;99.90;;;;;;4975499;28;20397;-73
2021/10/07 06:21:02;;;;;;;0.40;0.30;;;10.30;99.90;;;;;;4974938;28;20467;-73
2021/10/07 06:23:29;;;;;;;0.40;0.20;;;10.30;99.90;;;;;;4975482;28;20384;-73
2021/10/07 06:25:54;;;;;;;0.40;0.20;;;10.20;99.90;;;;;;4974553;28;20470;-73
2021/10/07 06:28:20;;;;;;;0.40;0.30;;;10.60;99.90;;;;;;4974813;28;20415;-73
2021/10/07 06:30:47;;;;;;;0.40;0.20;;;10.30;99.90;;;;;;4957820;28;20391;-74
2021/10/07 06:33:12;;;;;;;0.40;0.30;;;10.40;99.90;;;;;;4974684;28;20735;-73
2021/10/07 06:35:38;;;;;;;0.40;0.20;;;10.40;99.90;;;;;;4975302;28;20464;-73
2021/10/07 06:38:05;;;;;;;0.40;0.30;;;10.40;99.90;;;;;;4974362;28;20439;-73
2021/10/07 06:40:30;;;;;;;0.40;0.20;;;10.60;99.90;;;;;;4975369;28;20384;-73
2021/10/07 06:42:56;;;;;;;0.40;0.20;;;10.50;99.90;;;;;;4974457;28;20436;-73
2021/10/07 06:45:24;;;;;;;0.40;0.30;;;10.90;99.90;;;;;;4983216;28;20476;-73
2021/10/07 06:47:49;;;;;;;0.40;0.40;;;10.40;99.90;;;;;;4994436;28;20395;-73
2021/10/07 06:50:15;;;;;;;0.40;0.20;;;10.50;99.90;;;;;;4993616;28;20387;-73
2021/10/07 06:52:41;;;;;;;0.40;0.30;;;10.50;99.90;;;;;;4994257;28;20778;-73
2021/10/07 06:55:10;;;;;;;0.40;0.30;;;10.50;99.90;;;;;;4993278;28;20537;-73
2021/10/07 06:57:40;;;;;;;0.40;0.20;;;10.40;99.90;;;;;;4994199;28;20394;-73
2021/10/07 07:00:08;;;;;;;0.40;0.20;;;10.70;99.90;;;;;;4993632;28;20465;-73
2021/10/07 07:02:40;;;;;;;0.40;0.30;;;10.80;99.90;;;;;;4994114;28;20386;-74
2021/10/07 07:05:07;;;;;;;0.40;0.30;;;10.70;99.90;;;;;;4993277;28;20740;-73
2021/10/07 07:07:33;;;;;;;0.40;0.30;;;10.70;99.90;;;;;;4993991;28;20409;-73
2021/10/07 07:10:00;;;;;;;0.40;0.30;;;10.60;99.90;;;;;;4993328;28;20468;-73
2021/10/07 07:12:26;;;;;;;0.40;0.20;;;10.60;99.90;;;;;;4994084;28;20386;-73
2021/10/07 07:14:52;;;;;;;0.40;0.30;;;10.60;99.90;;;;;;4993809;28;20414;-73
2021/10/07 07:17:18;;;;;;;0.40;0.20;;;10.40;99.90;;;;;;4993970;28;20454;-73
2021/10/07 07:19:48;;;;;;;0.40;0.20;;;10.40;99.90;;;;;;4993807;28;20390;-73
2021/10/07 07:22:15;;;;;;;0.40;0.38;;;10.50;99.90;;;;;;4975715;28;20386;-74
2021/10/07 07:24:41;;;;;;;0.40;0.20;;;10.50;99.90;;;;;;4992739;28;20485;-73
2021/10/07 07:27:07;;;;;;;0.40;0.20;;;10.80;99.90;;;;;;4993080;28;20406;-73
2021/10/07 07:29:34;;;;;;;0.40;0.30;;;10.80;99.90;;;;;;4993261;28;20441;-73
2021/10/07 07:32:00;;;;;;;0.40;0.30;;;10.90;99.90;;;;;;4992966;28;20449;-73
2021/10/07 07:34:27;;;;;;;0.40;0.30;;;11.00;99.90;;;;;;4993303;28;20859;-73
2021/10/07 07:36:53;;;;;;;0.40;0.20;;;11.10;99.90;;;;;;4993390;28;20449;-74
2021/10/07 07:39:18;;;;;;;0.40;0.20;;;11.20;99.90;;;;;;4993149;28;20386;-73
2021/10/07 07:41:44;;;;;;;0.40;0.30;;;11.20;99.90;;;;;;4976116;28;20466;-73
2021/10/07 07:44:10;;;;;;;0.40;0.25;;;11.30;99.90;;;;;;4992687;28;20378;-73
2021/10/07 07:46:35;;;;;;;0.40;0.22;;;11.30;99.90;;;;;;4974886;28;20397;-73
2021/10/07 07:49:02;;;;;;;0.40;0.30;;;11.30;99.90;;;;;;4973250;28;20734;-73
2021/10/07 07:51:32;;;;;;;0.40;0.20;;;11.60;99.90;;;;;;4973624;28;20784;-73
2021/10/07 07:53:58;;;;;;;0.40;0.20;;;11.50;99.90;;;;;;4973015;28;20388;-72
2021/10/07 07:56:23;;;;;;;0.40;0.20;;;11.60;99.90;;;;;;4973780;28;20406;-73
2021/10/07 07:58:49;;;;;;;0.40;0.20;;;11.70;99.90;;;;;;4973407;28;20447;-73
2021/10/07 08:01:15;;;;;;;0.40;0.20;;;11.80;99.90;;;;;;4972873;28;20794;-73
2021/10/07 08:03:40;;;;;;;0.40;0.40;;;11.70;99.90;;;;;;4973708;28;20857;-73
2021/10/07 08:06:06;;;;;;;0.40;0.20;;;11.90;99.90;;;;;;4972744;28;20408;-73
2021/10/07 08:08:31;;;;;;;0.40;0.20;;;12.00;99.90;;;;;;4973393;28;20447;-73
2021/10/07 08:10:57;;;;;;;0.40;0.20;;;12.10;99.90;;;;;;4972712;28;20392;-73
2021/10/07 08:13:23;;;;;;;0.40;0.20;;;12.10;99.90;;;;;;4973121;28;20865;-73
2021/10/07 08:15:50;;;;;;;0.40;0.20;;;12.10;99.90;;;;;;4973055;28;20392;-73
2021/10/07 08:18:16;;;;;;;0.40;0.30;;;12.00;99.90;;;;;;4972748;28;20794;-73
2021/10/07 08:20:42;;;;;;;0.60;0.50;;;11.90;99.90;;;;;;4973415;28;20402;-73
2021/10/07 08:23:12;;;;;;;0.40;0.30;;;12.00;99.90;;;;;;4972624;28;20924;-73
2021/10/07 08:25:39;;;;;;;0.40;0.20;;;12.00;99.90;;;;;;4972822;28;20547;-73
2021/10/07 08:28:05;;;;;;;0.40;0.20;;;12.10;99.90;;;;;;4972173;28;20416;-73
2021/10/07 08:30:31;;;;;;;0.40;0.20;;;12.10;99.90;;;;;;4973038;28;20407;-73
2021/10/07 08:32:57;;;;;;;0.40;0.20;;;12.20;99.90;;;;;;4973078;28;20869;-73
2021/10/07 08:35:23;;;;;;;0.40;0.20;;;12.30;99.90;;;;;;4972912;28;20404;-73
2021/10/07 08:37:48;;;;;;;0.40;0.20;;;12.30;99.90;;;;;;4972351;28;20385;-73
2021/10/07 08:40:15;;;;;;;0.40;0.30;;;12.30;99.90;;;;;;4972629;28;20499;-73
2021/10/07 08:42:41;;;;;;;0.40;0.30;;;12.30;99.90;;;;;;4972730;28;20380;-73
2021/10/07 08:45:09;;;;;;;0.40;0.30;;;12.60;99.90;;;;;;4978551;28;20415;-73
2021/10/07 08:47:46;;;;;;;0.40;0.20;;;12.70;99.90;;;;;;4992494;28;20731;-73
2021/10/07 08:50:14;;;;;;;0.40;0.20;;;12.90;99.90;;;;;;4991608;28;20398;-73
2021/10/07 08:52:40;;;;;;;0.40;0.20;;;13.00;99.90;;;;;;4992359;28;20473;-73
2021/10/07 08:55:07;;;;;;;0.40;0.20;;;12.90;99.90;;;;;;4991528;28;20836;-72
2021/10/07 08:57:32;;;;;;;0.40;0.20;;;13.10;99.90;;;;;;4992124;28;20378;-73
2021/10/07 08:59:59;;;;;;;0.40;0.30;;;13.10;99.90;;;;;;4992051;28;20389;-74
2021/10/07 09:02:30;;;;;;;0.40;0.20;;;13.50;99.90;;;;;;4991993;28;20383;-73
2021/10/07 09:05:14;;;;;;;0.40;0.20;;;13.00;99.90;;;;;;4992070;28;20418;-73
2021/10/07 09:08:04;;;;;;;0.40;0.30;;;13.10;99.90;;;;;;4991939;28;20390;-73
2021/10/07 09:10:56;;;;;;;0.40;0.20;;;13.40;99.90;;;;;;4991798;28;20394;-73
2021/10/07 09:13:25;;;;;;;0.40;0.20;;;13.50;99.90;;;;;;4991289;28;20394;-74
2021/10/07 09:15:54;;;;;;;0.40;0.40;;;13.20;99.90;;;;;;4991893;28;20386;-73
2021/10/07 09:18:20;;;;;;;0.40;0.30;;;13.10;99.90;;;;;;4991249;28;20893;-73
2021/10/07 09:20:49;;;;;;;0.40;0.30;;;13.30;99.90;;;;;;4991781;28;20444;-73
2021/10/07 09:23:21;;;;;;;0.40;0.40;;;13.60;99.90;;;;;;4991181;28;20383;-73
2021/10/07 09:26:05;;;;;;;0.40;0.30;;;13.10;99.90;;;;;;4991642;28;20902;-73
2021/10/07 09:28:49;;;;;;;0.40;0.30;;;13.40;99.90;;;;;;4991389;28;20403;-73
2021/10/07 09:31:22;;;;;;;0.40;0.30;;;13.40;99.90;;;;;;4991104;28;20379;-73
2021/10/07 09:34:01;;;;;;;0.40;0.20;;;13.40;99.90;;;;;;4991810;28;20799;-73
2021/10/07 09:36:28;;;;;;;0.60;0.60;;;13.70;99.90;;;;;;4991485;28;20382;-73
2021/10/07 09:38:54;;;;;;;0.40;0.20;;;13.90;99.90;;;;;;4991594;28;20394;-73
2021/10/07 09:41:21;;;;;;;0.40;0.40;;;13.80;99.90;;;;;;4991049;28;20449;-73
2021/10/07 09:43:56;;;;;;;0.40;0.30;;;13.40;99.90;;;;;;4991461;28;20811;-73
2021/10/07 09:46:40;;;;;;;0.40;0.20;;;13.40;99.90;;;;;;4974333;28;20628;-73
2021/10/07 09:49:11;;;;;;;0.40;0.30;;;13.60;99.90;;;;;;4974405;28;20483;-73
2021/10/07 09:51:45;;;;;;;0.40;0.25;;;13.40;99.90;;;;;;4976101;28;20746;-73
2021/10/07 09:54:11;;;;;;;0.40;0.20;;;13.40;99.90;;;;;;4975368;28;20388;-73
2021/10/07 09:56:37;;;;;;;0.40;0.20;;;13.50;99.90;;;;;;4975351;28;20450;-74
2021/10/07 09:59:09;;;;;;;0.40;0.20;;;13.60;99.90;;;;;;4975446;28;20832;-73
2021/10/07 10:01:38;;;;;;;0.40;0.27;;;13.70;99.90;;;;;;4975712;28;20381;-73
2021/10/07 10:04:04;;;;;;;0.40;0.20;;;13.60;99.90;;;;;;4975137;28;20805;-73
2021/10/07 10:06:30;;;;;;;0.90;0.40;;;13.70;99.90;;;;;;4975700;28;20813;-73
2021/10/07 10:08:56;;;;;;;0.40;0.30;;;14.10;99.90;;;;;;4975709;28;20400;-74
2021/10/07 10:11:22;;;;;;;0.40;0.20;;;14.30;99.90;;;;;;4975045;28;20794;-73
2021/10/07 10:13:48;;;;;;;0.40;0.20;;;14.20;99.90;;;;;;4975631;28;20391;-73
2021/10/07 10:16:18;;;;;;;0.40;0.20;;;14.30;99.90;;;;;;4974853;28;20464;-73
2021/10/07 10:18:59;;;;;;;0.40;0.30;;;13.80;99.90;;;;;;4975503;28;20391;-74
2021/10/07 10:21:27;;;;;;;0.40;0.30;;;13.80;99.90;;;;;;4957365;28;20424;-74
2021/10/07 10:23:55;;;;;;;0.40;0.40;;;13.80;99.90;;;;;;4975126;28;20896;-74
2021/10/07 10:26:21;;;;;;;0.40;0.30;;;13.70;99.90;;;;;;4974847;28;20880;-73
2021/10/07 10:28:53;;;;;;;0.40;0.20;;;13.70;99.90;;;;;;4975622;28;20408;-74
2021/10/07 10:31:38;;;;;;;0.40;0.20;;;13.70;99.90;;;;;;4974552;28;20384;-73
2021/10/07 10:34:13;;;;;;;0.40;0.30;;;13.50;99.90;;;;;;4975345;28;20396;-74
2021/10/07 10:36:40;;;;;;;0.40;0.20;;;13.70;99.90;;;;;;4975106;28;20399;-73
2021/10/07 10:39:15;;;;;;;0.40;0.20;;;13.70;99.90;;;;;;4974664;28;20392;-73
2021/10/07 10:41:45;;;;;;;0.40;0.20;;;14.10;99.90;;;;;;4974976;28;20392;-73
2021/10/07 10:44:32;;;;;;;0.40;0.20;;;14.30;99.90;;;;;;4974398;28;20391;-73
2021/10/07 10:47:07;;;;;;;0.40;0.20;;;14.40;99.90;;;;;;4974541;28;20454;-73
2021/10/07 10:49:49;;;;;;;0.40;0.30;;;14.20;99.90;;;;;;4974913;28;20746;-73
2021/10/07 10:52:18;;;;;;;0.40;0.20;;;14.20;99.90;;;;;;4974545;28;20395;-73
2021/10/07 10:54:49;;;;;;;0.40;0.20;;;14.40;99.90;;;;;;4974803;28;20785;-73
2021/10/07 10:57:26;;;;;;;0.40;0.30;;;14.70;99.90;;;;;;4973929;28;20392;-73
2021/10/07 11:00:08;;;;;;;0.40;0.30;;;15.10;99.90;;;;;;4973801;28;20392;-74
2021/10/07 11:02:35;;;;;;;0.40;0.28;;;15.10;99.90;;;;;;4974714;28;20877;-73
2021/10/07 11:05:12;;;;;;;0.40;0.30;;;15.30;99.90;;;;;;4974527;28;20412;-73
2021/10/07 11:07:37;;;;;;;0.40;0.30;;;15.10;99.90;;;;;;4974312;28;20876;-74
2021/10/07 11:10:05;;;;;;;0.40;0.30;;;14.70;99.90;;;;;;4974497;28;20396;-74
2021/10/07 11:12:49;;;;;;;0.40;0.30;;;14.70;99.90;;;;;;4974094;28;20887;-74
2021/10/07 11:15:17;;;;;;;0.40;0.20;;;14.60;99.90;;;;;;4973935;28;20442;-73
2021/10/07 11:17:45;;;;;;;0.40;0.20;;;14.50;99.90;;;;;;4974098;28;20384;-74
2021/10/07 11:20:24;;;;;;;0.40;0.30;;;14.20;99.90;;;;;;4973525;28;20388;-74
2021/10/07 11:23:16;;;;;;;0.40;0.40;;;14.30;99.90;;;;;;4974657;28;20376;-75
2021/10/07 11:25:47;;;;;;;0.40;0.30;;;14.40;99.90;;;;;;4971807;28;20951;-75
2021/10/07 11:28:13;;;;;;;0.40;0.20;;;14.60;99.90;;;;;;4973500;28;20416;-74
2021/10/07 11:30:41;;;;;;;0.40;0.20;;;14.60;99.90;;;;;;4974290;28;20972;-74
2021/10/07 11:33:07;;;;;;;0.40;0.20;;;14.70;99.90;;;;;;4974043;28;20722;-74
2021/10/07 11:35:33;;;;;;;0.40;0.30;;;14.90;99.90;;;;;;4973504;28;20483;-74
2021/10/07 11:38:03;;;;;;;0.40;0.30;;;15.60;99.90;;;;;;4973733;28;20443;-74
2021/10/07 11:40:40;;;;;;;0.40;0.30;;;16.00;99.90;;;;;;4973441;28;20498;-74
2021/10/07 11:43:31;;;;;;;0.40;0.30;;;16.30;99.90;;;;;;4973918;28;20431;-74
2021/10/07 11:45:58;;;;;;;0.40;0.30;;;17.90;99.90;;;;;;4981117;28;20477;-75
2021/10/07 11:48:25;;;;;;;0.40;0.20;;;17.00;99.90;;;;;;4992652;28;20744;-75
2021/10/07 11:50:55;;;;;;;0.40;0.30;;;17.30;99.90;;;;;;4993243;28;20480;-75
2021/10/07 11:53:30;;;;;;;0.40;0.20;;;18.50;97.30;;;;;;4992338;28;20394;-75
2021/10/07 11:55:56;;;;;;;0.40;0.30;;;18.80;94.70;;;;;;4993259;28;20735;-74
2021/10/07 11:58:26;;;;;;;0.40;0.30;;;19.00;95.60;;;;;;4992046;28;20733;-74
2021/10/07 12:00:52;;;;;;;0.40;0.30;;;18.20;95.30;;;;;;4992719;28;20799;-73
2021/10/07 12:03:24;;;;;;;0.40;0.30;;;17.90;98.50;;;;;;4991613;28;20389;-73
2021/10/07 12:05:59;;;;;;;0.40;0.30;;;16.90;96.80;;;;;;4992691;28;20406;-73
2021/10/07 12:08:30;;;;;;;0.40;0.30;;;15.90;99.70;;;;;;4991573;28;20442;-73
2021/10/07 12:11:03;;;;;;;0.40;0.20;;;15.50;99.90;;;;;;4992619;28;20410;-74
2021/10/07 12:13:33;;;;;;;0.40;0.30;;;15.20;99.90;;;;;;4991308;28;20963;-73
2021/10/07 12:16:01;;;;;;;0.40;0.20;;;15.10;99.90;;;;;;4992391;28;20398;-73
2021/10/07 12:18:27;;;;;;;0.40;0.30;;;15.00;99.90;;;;;;4991692;28;20386;-73
2021/10/07 12:21:06;;;;;;;0.40;0.20;;;14.90;99.90;;;;;;4992281;28;20551;-73
2021/10/07 12:23:58;;;;;;;0.40;0.25;;;14.90;99.90;;;;;;4991741;28;21079;-73
2021/10/07 12:26:30;;;;;;;0.40;0.20;;;14.80;99.90;;;;;;4990857;28;20767;-73
2021/10/07 12:28:59;;;;;;;0.40;0.20;;;14.70;99.90;;;;;;4985566;28;20454;-72
2021/10/07 12:31:29;;;;;;;0.40;0.30;;;14.70;99.90;;;;;;4990368;28;20390;-73
2021/10/07 12:33:57;;;;;;;0.40;0.20;;;14.90;99.90;;;;;;4992043;28;20391;-73
2021/10/07 12:36:31;;;;;;;0.40;0.30;;;14.90;99.90;;;;;;4980577;28;20487;-73
2021/10/07 12:38:57;;;;;;;0.40;0.30;;;15.00;99.90;;;;;;4978877;28;20472;-72
2021/10/07 12:41:41;;;;;;;0.40;0.20;;;14.90;99.90;;;;;;4978727;28;20438;-73
2021/10/07 12:44:08;;;;;;;0.40;0.30;;;15.90;99.90;;;;;;4986343;28;20400;-73
2021/10/07 12:46:52;;;;;;;0.40;0.30;;;16.30;99.00;;;;;;4984511;28;20399;-72
2021/10/07 12:49:41;;;;;;;0.40;0.20;;;16.30;99.90;;;;;;4984663;28;20449;-71
2021/10/07 12:52:25;;;;;;;0.40;0.20;;;17.00;99.80;;;;;;4986268;28;20723;-72
2021/10/07 12:55:12;;;;;;;0.40;0.20;;;18.00;97.60;;;;;;4985580;28;20413;-72
2021/10/07 12:57:47;;;;;;;0.40;0.30;;;17.80;95.70;;;;;;4986158;28;21239;-71